createdAt,value
2023-01-13T00:00:25.953Z,455.70
2023-01-13T00:03:00.480Z,439.93
2023-01-13T00:05:33.627Z,455.53
2023-01-13T00:08:07.886Z,472.10
2023-01-13T00:10:41.555Z,477.77
2023-01-13T00:13:14.794Z,463.13
2023-01-13T00:15:48.084Z,466.23
2023-01-13T00:18:23.212Z,468.57
2023-01-13T00:21:03.955Z,476.30
2023-01-13T00:23:38.556Z,471.13
2023-01-13T00:26:14.562Z,473.03
2023-01-13T00:28:47.284Z,456.90
2023-01-13T00:31:22.096Z,470.00
2023-01-13T00:34:01.169Z,467.07
2023-01-13T00:36:34.654Z,464.93
2023-01-13T00:39:08.393Z,468.00
2023-01-13T00:41:58.085Z,459.37
2023-01-13T00:44:30.830Z,466.50
2023-01-13T00:47:03.586Z,465.20
2023-01-13T00:49:38.440Z,462.30
2023-01-13T00:52:11.586Z,438.67
2023-01-13T00:54:44.817Z,453.63
2023-01-13T00:57:18.062Z,455.00
2023-01-13T00:59:51.705Z,447.27
2023-01-13T01:02:24.937Z,442.03
2023-01-13T01:05:01.514Z,460.13
2023-01-13T01:07:34.541Z,462.83
2023-01-13T01:10:10.611Z,462.60
2023-01-13T01:12:43.388Z,470.63
2023-01-13T01:15:16.824Z,463.77
2023-01-13T01:17:49.899Z,462.20
2023-01-13T01:20:24.898Z,459.10
2023-01-13T01:22:58.000Z,447.60
2023-01-13T01:25:31.068Z,439.73
2023-01-13T01:28:04.330Z,475.67
2023-01-13T01:30:38.054Z,476.30
2023-01-13T01:33:11.627Z,469.10
2023-01-13T01:35:46.934Z,467.40
2023-01-13T01:38:22.487Z,461.93
2023-01-13T01:40:55.255Z,445.67
2023-01-13T01:43:58.808Z,448.90
2023-01-13T01:46:33.147Z,458.67
2023-01-13T01:49:14.504Z,461.43
2023-01-13T01:51:53.504Z,479.73
2023-01-13T01:54:31.032Z,465.63
2023-01-13T01:57:04.557Z,445.27
2023-01-13T01:59:39.942Z,450.90
2023-01-13T02:02:13.554Z,455.63
2023-01-13T02:04:53.740Z,469.17
2023-01-13T02:07:31.784Z,447.13
2023-01-13T02:10:09.739Z,442.27
2023-01-13T02:12:44.415Z,461.13
2023-01-13T02:15:18.690Z,456.93
2023-01-13T02:18:07.385Z,455.17
2023-01-13T02:21:29.159Z,457.67
2023-01-13T02:24:56.067Z,462.63
2023-01-13T02:28:00.253Z,450.80
2023-01-13T02:31:02.572Z,436.57
2023-01-13T02:34:02.223Z,442.40
2023-01-13T02:36:43.187Z,437.80
2023-01-13T02:39:22.955Z,419.03
2023-01-13T02:42:16.774Z,419.00
2023-01-13T02:44:55.905Z,413.37
2023-01-13T02:47:32.399Z,413.47
2023-01-13T02:50:09.039Z,402.83
2023-01-13T02:52:45.023Z,404.20
2023-01-13T02:55:20.511Z,396.90
2023-01-13T02:57:56.606Z,406.63
2023-01-13T03:00:31.717Z,385.57
2023-01-13T03:03:07.367Z,392.63
2023-01-13T03:05:41.032Z,397.80
2023-01-13T03:08:30.621Z,394.37
2023-01-13T03:11:09.617Z,393.07
2023-01-13T03:14:05.887Z,390.43
2023-01-13T03:16:52.821Z,375.63
2023-01-13T03:19:40.538Z,380.77
2023-01-13T03:22:21.960Z,376.30
2023-01-13T03:25:01.471Z,393.83
2023-01-13T03:27:39.728Z,390.80
2023-01-13T03:30:19.698Z,384.17
2023-01-13T03:32:57.620Z,383.30
2023-01-13T03:35:35.313Z,387.67
2023-01-13T03:38:11.151Z,403.87
2023-01-13T03:40:49.614Z,399.30
2023-01-13T03:43:42.096Z,408.20
2023-01-13T03:46:23.291Z,408.63
2023-01-13T03:49:01.122Z,409.37
2023-01-13T03:51:40.136Z,425.93
2023-01-13T03:54:15.205Z,414.30
2023-01-13T03:56:51.560Z,403.80
2023-01-13T03:59:32.212Z,396.43
2023-01-13T04:02:11.667Z,416.30
2023-01-13T04:04:52.986Z,427.13
2023-01-13T04:07:46.240Z,418.53
2023-01-13T04:10:26.223Z,428.03
2023-01-13T04:13:05.980Z,435.77
2023-01-13T04:15:44.580Z,447.57
2023-01-13T04:18:23.095Z,427.97
2023-01-13T04:21:00.551Z,444.87
2023-01-13T04:23:39.075Z,440.17
2023-01-13T04:26:15.861Z,440.60
2023-01-13T04:28:51.359Z,433.27
2023-01-13T04:31:27.195Z,426.73
2023-01-13T04:34:02.821Z,430.57
2023-01-13T04:36:38.540Z,427.83
2023-01-13T04:39:17.114Z,427.37
2023-01-13T04:42:03.753Z,432.80
2023-01-13T04:44:40.195Z,437.60
2023-01-13T04:47:16.503Z,430.27
2023-01-13T04:49:51.999Z,432.17
2023-01-13T04:52:27.491Z,432.17
2023-01-13T04:55:05.010Z,446.93
2023-01-13T04:57:41.070Z,440.90
2023-01-13T05:00:19.224Z,443.17
2023-01-13T05:02:57.433Z,442.27
2023-01-13T05:05:32.169Z,436.20
2023-01-13T05:08:06.140Z,437.80
2023-01-13T05:10:42.837Z,429.70
2023-01-13T05:13:33.298Z,449.03
2023-01-13T05:16:22.717Z,447.70
2023-01-13T05:18:56.935Z,451.47
2023-01-13T05:21:48.913Z,447.93
2023-01-13T05:24:38.272Z,431.10
2023-01-13T05:27:13.235Z,452.70
2023-01-13T05:29:46.981Z,447.63
2023-01-13T05:32:21.706Z,437.37
2023-01-13T05:34:55.964Z,447.17
2023-01-13T05:37:30.881Z,452.97
2023-01-13T05:40:21.266Z,450.80
2023-01-13T05:43:26.324Z,450.40
2023-01-13T05:46:04.762Z,454.60
2023-01-13T05:48:41.067Z,455.40
2023-01-13T05:51:17.233Z,430.50
2023-01-13T05:53:51.979Z,427.63
2023-01-13T05:56:26.483Z,450.67
2023-01-13T05:59:03.059Z,420.93
2023-01-13T06:01:38.811Z,431.07
2023-01-13T06:04:13.596Z,448.87
2023-01-13T06:06:48.740Z,419.13
2023-01-13T06:09:25.075Z,429.87
2023-01-13T06:11:59.939Z,431.20
2023-01-13T06:14:41.300Z,430.50
2023-01-13T06:17:17.147Z,413.73
2023-01-13T06:19:53.028Z,431.90
2023-01-13T06:22:32.895Z,428.67
2023-01-13T06:25:08.854Z,424.93
2023-01-13T06:27:44.940Z,433.03
2023-01-13T06:30:21.979Z,430.77
2023-01-13T06:32:59.887Z,445.00
2023-01-13T06:35:39.195Z,438.40
2023-01-13T06:38:17.532Z,434.33
2023-01-13T06:40:54.187Z,444.27
2023-01-13T06:43:28.389Z,447.87
2023-01-13T06:46:07.851Z,435.30
2023-01-13T06:48:44.095Z,435.87
2023-01-13T06:51:19.666Z,418.33
2023-01-13T06:53:55.138Z,425.80
2023-01-13T06:56:30.577Z,433.00
2023-01-13T06:59:06.263Z,438.30
2023-01-13T07:01:45.737Z,425.60
2023-01-13T07:04:24.088Z,420.60
2023-01-13T07:07:01.473Z,429.87
2023-01-13T07:09:37.464Z,431.60
2023-01-13T07:12:13.014Z,427.83
2023-01-13T07:15:04.144Z,440.37
2023-01-13T07:17:42.444Z,426.43
2023-01-13T07:20:18.691Z,419.17
2023-01-13T07:23:00.690Z,404.07
2023-01-13T07:25:36.347Z,386.47
2023-01-13T07:28:11.939Z,377.93
2023-01-13T07:30:49.365Z,380.47
2023-01-13T07:33:27.976Z,354.43
2023-01-13T07:36:15.521Z,372.10
2023-01-13T07:39:01.310Z,370.43
2023-01-13T07:41:53.678Z,382.43
2023-01-13T07:44:29.199Z,346.40
2023-01-13T07:47:05.129Z,349.77
2023-01-13T07:49:43.484Z,341.23
2023-01-13T07:52:19.071Z,337.43
2023-01-13T07:54:54.592Z,316.53
2023-01-13T07:57:41.913Z,273.43
2023-01-13T08:00:19.280Z,231.47
2023-01-13T08:02:54.551Z,246.90
2023-01-13T08:05:32.144Z,214.67
2023-01-13T08:08:07.826Z,223.43
2023-01-13T08:10:43.667Z,195.47
2023-01-13T08:13:33.528Z,211.07
2023-01-13T08:16:10.449Z,191.37
2023-01-13T08:18:44.413Z,193.53
2023-01-13T08:21:24.250Z,188.73
2023-01-13T08:23:58.086Z,177.50
2023-01-13T08:26:32.397Z,182.10
2023-01-13T08:29:09.529Z,181.47
2023-01-13T08:31:44.198Z,165.67
2023-01-13T08:34:19.259Z,157.50
2023-01-13T08:36:57.886Z,146.97
2023-01-13T08:39:31.998Z,147.57
2023-01-13T08:42:05.130Z,151.30
2023-01-13T08:44:38.503Z,150.73
2023-01-13T08:47:12.899Z,126.93
2023-01-13T08:49:48.259Z,118.80
2023-01-13T08:52:24.840Z,111.67
2023-01-13T08:54:59.761Z,113.80
2023-01-13T08:57:34.350Z,96.70
2023-01-13T09:00:10.536Z,105.87
2023-01-13T09:02:44.889Z,108.37
2023-01-13T09:05:18.341Z,98.83
2023-01-13T09:07:54.101Z,86.57
2023-01-13T09:10:27.699Z,90.13
2023-01-13T09:13:15.743Z,95.77
2023-01-13T09:15:51.218Z,92.93
2023-01-13T09:18:25.032Z,86.90
2023-01-13T09:20:58.789Z,92.87
2023-01-13T09:23:36.115Z,88.00
2023-01-13T09:26:10.018Z,102.27
2023-01-13T09:28:44.751Z,80.73
2023-01-13T09:31:19.024Z,82.57
2023-01-13T09:34:08.847Z,82.13
2023-01-13T09:36:42.608Z,74.13
2023-01-13T09:39:18.254Z,79.27
2023-01-13T09:42:10.406Z,75.90
2023-01-13T09:44:51.553Z,80.43
2023-01-13T09:47:32.014Z,79.33
2023-01-13T09:50:22.059Z,79.97
2023-01-13T09:52:57.500Z,69.03
2023-01-13T09:55:38.405Z,75.10
2023-01-13T09:58:18.488Z,76.13
2023-01-13T10:01:01.678Z,69.97
2023-01-13T10:03:38.200Z,70.27
2023-01-13T10:06:19.460Z,73.50
2023-01-13T10:08:55.827Z,67.37
2023-01-13T10:11:53.633Z,66.70
2023-01-13T10:14:30.935Z,69.57
2023-01-13T10:17:14.399Z,78.00
2023-01-13T10:19:52.665Z,65.00
2023-01-13T10:22:43.332Z,67.53
2023-01-13T10:25:29.409Z,68.33
2023-01-13T10:28:12.680Z,66.97
2023-01-13T10:30:48.764Z,57.93
2023-01-13T10:33:27.906Z,68.10
2023-01-13T10:36:05.217Z,57.10
2023-01-13T10:38:44.579Z,71.33
2023-01-13T10:41:29.124Z,54.00
2023-01-13T10:44:10.766Z,69.03
2023-01-13T10:46:58.447Z,61.07
2023-01-13T10:49:38.143Z,58.10
2023-01-13T10:52:32.123Z,66.27
2023-01-13T10:55:07.895Z,68.23
2023-01-13T10:57:42.715Z,60.30
2023-01-13T11:00:32.044Z,68.80
2023-01-13T11:03:24.240Z,66.63
2023-01-13T11:06:01.323Z,78.37
2023-01-13T11:08:47.110Z,72.73
2023-01-13T11:11:45.086Z,63.80
2023-01-13T11:14:41.772Z,73.17
2023-01-13T11:17:32.295Z,79.70
2023-01-13T11:20:22.038Z,78.57
2023-01-13T11:22:58.803Z,76.47
2023-01-13T11:25:43.648Z,68.03
2023-01-13T11:28:43.780Z,75.37
2023-01-13T11:31:27.274Z,80.80
2023-01-13T11:34:12.668Z,77.00
2023-01-13T11:36:52.704Z,89.47
2023-01-13T11:39:41.829Z,77.43
2023-01-13T11:42:27.620Z,84.83
2023-01-13T11:45:24.847Z,74.67
2023-01-13T11:48:03.393Z,87.10
2023-01-13T11:50:46.110Z,76.37
2023-01-13T11:53:38.307Z,83.37
2023-01-13T11:56:30.523Z,81.83
2023-01-13T11:59:26.879Z,83.80
2023-01-13T12:02:18.840Z,83.10
2023-01-13T12:05:01.055Z,86.27
2023-01-13T12:07:49.308Z,84.80
2023-01-13T12:10:39.959Z,84.23
2023-01-13T12:13:26.656Z,84.80
2023-01-13T12:16:19.608Z,95.30
2023-01-13T12:19:32.005Z,78.30
2023-01-13T12:22:18.271Z,88.53
2023-01-13T12:24:59.942Z,88.47
2023-01-13T12:27:47.933Z,103.63
2023-01-13T12:30:36.247Z,75.80
2023-01-13T12:33:25.228Z,95.67
2023-01-13T12:36:10.922Z,90.63
2023-01-13T12:38:54.509Z,90.07
2023-01-13T12:41:41.637Z,107.70
2023-01-13T12:44:22.601Z,90.60
2023-01-13T12:47:00.071Z,78.87
2023-01-13T12:49:37.060Z,95.50
2023-01-13T12:52:23.892Z,96.33
2023-01-13T12:55:24.013Z,94.20
2023-01-13T12:58:22.656Z,100.73
2023-01-13T13:01:05.465Z,97.23
2023-01-13T13:03:42.785Z,91.37
2023-01-13T13:06:24.773Z,97.73
2023-01-13T13:09:18.778Z,100.60
2023-01-13T13:12:09.713Z,109.87
2023-01-13T13:15:24.128Z,97.40
2023-01-13T13:18:29.974Z,99.03
2023-01-13T13:21:16.904Z,113.93
2023-01-13T13:24:08.943Z,111.83
2023-01-13T13:26:48.095Z,104.90
2023-01-13T13:29:40.926Z,110.53
2023-01-13T13:32:56.343Z,121.83
2023-01-13T13:35:53.243Z,115.93
2023-01-13T13:39:05.668Z,116.17
2023-01-13T13:42:07.637Z,115.73
2023-01-13T13:45:06.701Z,102.23
2023-01-13T13:47:46.119Z,108.00
2023-01-13T13:50:25.608Z,105.57
2023-01-13T13:53:13.987Z,116.37
2023-01-13T13:56:01.152Z,109.03
2023-01-13T13:58:38.961Z,121.37
2023-01-13T14:01:24.966Z,103.30
2023-01-13T14:04:19.175Z,102.23
2023-01-13T14:06:59.159Z,114.63
2023-01-13T14:09:46.414Z,97.70
2023-01-13T14:12:31.751Z,108.23
2023-01-13T14:15:08.044Z,110.43
2023-01-13T14:17:46.304Z,112.33
2023-01-13T14:20:33.533Z,111.87
2023-01-13T14:26:01.243Z,121.90
2023-01-13T14:28:40.412Z,122.73
2023-01-13T14:31:18.320Z,113.53
2023-01-13T14:33:56.175Z,118.60
2023-01-13T14:36:41.624Z,134.40
2023-01-13T14:39:39.556Z,134.43
2023-01-13T14:42:23.299Z,142.97
2023-01-13T14:44:59.476Z,121.10
2023-01-13T14:47:37.465Z,114.07
2023-01-13T14:50:28.729Z,111.13
2023-01-13T14:53:06.717Z,134.00
2023-01-13T14:55:43.489Z,119.50
2023-01-13T14:58:33.782Z,117.10
2023-01-13T15:01:34.336Z,114.73
2023-01-13T15:04:37.025Z,130.50
2023-01-13T15:07:31.309Z,125.60
2023-01-13T15:10:07.771Z,118.27
2023-01-13T15:12:44.718Z,135.30
2023-01-13T15:15:34.707Z,122.90
2023-01-13T15:18:21.295Z,113.73
2023-01-13T15:21:01.000Z,129.17
2023-01-13T15:23:38.594Z,124.30
2023-01-13T15:26:29.454Z,152.10
2023-01-13T15:29:08.204Z,127.23
2023-01-13T15:31:47.327Z,124.53
2023-01-13T15:34:22.932Z,120.23
2023-01-13T15:36:58.756Z,124.87
2023-01-13T15:39:34.071Z,103.60
2023-01-13T15:42:25.126Z,125.93
2023-01-13T15:45:20.885Z,120.97
2023-01-13T15:47:58.588Z,134.57
2023-01-13T15:50:34.733Z,157.70
2023-01-13T15:53:10.237Z,121.97
2023-01-13T15:55:47.497Z,135.63
2023-01-13T15:58:25.018Z,139.47
2023-01-13T16:01:00.842Z,138.20
2023-01-13T16:03:39.552Z,119.23
2023-01-13T16:06:23.797Z,136.87
2023-01-13T16:08:59.847Z,143.37
2023-01-13T16:11:35.960Z,145.13
2023-01-13T16:14:11.820Z,159.83
2023-01-13T16:16:51.411Z,137.87
2023-01-13T16:19:30.578Z,139.20
2023-01-13T16:22:05.816Z,141.53
2023-01-13T16:24:40.845Z,156.13
2023-01-13T16:27:23.168Z,122.93
2023-01-13T16:29:59.686Z,139.13
2023-01-13T16:32:35.520Z,128.43
2023-01-13T16:35:17.649Z,162.03
2023-01-13T16:37:53.794Z,135.27
2023-01-13T16:40:32.991Z,144.50
2023-01-13T16:43:09.880Z,146.03
2023-01-13T16:45:45.775Z,132.87
2023-01-13T16:48:25.402Z,150.73
2023-01-13T16:51:03.193Z,161.53
2023-01-13T16:53:38.778Z,119.33
2023-01-13T16:56:27.413Z,135.03
2023-01-13T16:59:04.421Z,135.80
2023-01-13T17:01:43.006Z,149.63
2023-01-13T17:04:22.130Z,141.60
2023-01-13T17:07:04.670Z,140.53
2023-01-13T17:09:40.757Z,159.40
2023-01-13T17:12:17.100Z,157.77
2023-01-13T17:14:52.559Z,156.23
2023-01-13T17:17:29.062Z,142.00
2023-01-13T17:20:04.254Z,176.27
2023-01-13T17:22:42.271Z,164.97
2023-01-13T17:25:18.388Z,170.50
2023-01-13T17:27:53.600Z,173.83
2023-01-13T17:30:28.348Z,147.53
2023-01-13T17:33:02.465Z,159.03
2023-01-13T17:35:37.264Z,158.30
2023-01-13T17:38:14.827Z,180.47
2023-01-13T17:40:53.105Z,161.60
2023-01-13T17:43:26.555Z,179.73
2023-01-13T17:46:00.244Z,148.27
2023-01-13T17:48:33.995Z,180.63
2023-01-13T17:51:08.486Z,180.17
2023-01-13T17:53:44.220Z,169.23
2023-01-13T17:56:18.292Z,177.90
2023-01-13T17:58:51.781Z,174.47
2023-01-13T18:01:28.088Z,158.53
2023-01-13T18:04:02.833Z,158.90
2023-01-13T18:06:36.351Z,197.00
2023-01-13T18:09:10.964Z,173.00
2023-01-13T18:11:45.629Z,190.13
2023-01-13T18:14:24.909Z,155.37
2023-01-13T18:17:00.120Z,184.43
2023-01-13T18:19:49.623Z,184.43
2023-01-13T18:22:38.418Z,151.23
2023-01-13T18:25:32.662Z,204.40
2023-01-13T18:28:05.812Z,161.20
2023-01-13T18:30:39.206Z,160.30
2023-01-13T18:33:12.586Z,183.07
2023-01-13T18:35:46.522Z,156.70
2023-01-13T18:38:20.028Z,196.80
2023-01-13T18:40:55.742Z,185.40
2023-01-13T18:43:27.666Z,169.93
2023-01-13T18:46:01.240Z,166.73
2023-01-13T18:48:35.173Z,202.17
2023-01-13T18:51:08.845Z,190.27
2023-01-13T18:53:41.636Z,174.57
2023-01-13T18:56:17.805Z,205.90
2023-01-13T18:58:53.412Z,170.30
2023-01-13T19:01:28.866Z,182.47
2023-01-13T19:04:11.705Z,171.20
2023-01-13T19:06:50.157Z,198.93
2023-01-13T19:09:26.156Z,157.87
2023-01-13T19:12:02.649Z,174.67
2023-01-13T19:14:38.992Z,172.10
2023-01-13T19:17:14.277Z,194.90
2023-01-13T19:19:49.518Z,187.70
2023-01-13T19:22:24.734Z,186.97
2023-01-13T19:24:58.217Z,198.07
2023-01-13T19:27:34.039Z,180.07
2023-01-13T19:30:07.805Z,169.10
2023-01-13T19:32:41.819Z,171.33
2023-01-13T19:35:18.910Z,198.40
2023-01-13T19:37:52.449Z,179.27
2023-01-13T19:40:26.020Z,194.27
2023-01-13T19:43:17.487Z,155.30
2023-01-13T19:45:52.087Z,188.70
2023-01-13T19:48:25.956Z,192.50
2023-01-13T19:50:59.201Z,200.33
2023-01-13T19:53:32.782Z,208.63
2023-01-13T19:56:05.592Z,193.50
2023-01-13T19:58:41.336Z,175.13
2023-01-13T20:01:17.536Z,172.43
2023-01-13T20:03:52.236Z,188.20
2023-01-13T20:06:25.545Z,183.20
2023-01-13T20:08:59.400Z,183.60
2023-01-13T20:11:34.718Z,160.60
2023-01-13T20:14:10.255Z,177.10
2023-01-13T20:16:43.393Z,168.93
2023-01-13T20:19:16.525Z,189.23
2023-01-13T20:21:49.325Z,151.93
2023-01-13T20:24:22.054Z,156.13
2023-01-13T20:26:55.969Z,181.00
2023-01-13T20:29:31.439Z,184.07
2023-01-13T20:32:04.792Z,176.90
2023-01-13T20:34:38.238Z,167.87
2023-01-13T20:37:11.748Z,167.67
2023-01-13T20:39:46.790Z,167.83
2023-01-13T20:42:33.305Z,184.33
2023-01-13T20:45:09.284Z,159.23
2023-01-13T20:47:42.084Z,155.63
2023-01-13T20:50:16.095Z,182.87
2023-01-13T20:52:49.153Z,166.23
2023-01-13T20:55:22.315Z,163.67
2023-01-13T20:57:55.651Z,170.77
2023-01-13T21:00:31.712Z,171.23
2023-01-13T21:03:05.648Z,174.23
2023-01-13T21:05:41.312Z,164.90
2023-01-13T21:08:14.483Z,161.07
2023-01-13T21:10:47.805Z,146.33
2023-01-13T21:13:37.216Z,165.90
2023-01-13T21:16:14.176Z,199.00
2023-01-13T21:19:04.210Z,174.37
2023-01-13T21:21:38.131Z,177.47
2023-01-13T21:24:11.556Z,177.37
2023-01-13T21:26:44.997Z,198.27
2023-01-13T21:29:18.119Z,164.67
2023-01-13T21:31:52.781Z,170.77
2023-01-13T21:34:26.095Z,165.87
2023-01-13T21:37:00.633Z,188.10
2023-01-13T21:39:33.895Z,171.13
2023-01-13T21:42:23.594Z,164.90
2023-01-13T21:45:13.007Z,172.87
2023-01-13T21:47:54.038Z,175.90
2023-01-13T21:50:28.764Z,166.03
2023-01-13T21:53:02.894Z,175.50
2023-01-13T21:55:35.738Z,168.63
2023-01-13T21:58:18.155Z,166.13
2023-01-13T22:00:52.613Z,153.77
2023-01-13T22:03:28.064Z,181.97
2023-01-13T22:06:01.435Z,151.93
2023-01-13T22:08:37.173Z,165.90
2023-01-13T22:11:10.462Z,159.07
2023-01-13T22:13:59.964Z,150.40
2023-01-13T22:16:33.171Z,163.67
2023-01-13T22:19:07.839Z,175.67
2023-01-13T22:21:41.443Z,159.77
2023-01-13T22:24:15.359Z,164.40
2023-01-13T22:26:48.994Z,171.57
2023-01-13T22:29:22.441Z,174.77
2023-01-13T22:31:55.816Z,141.60
2023-01-13T22:34:30.725Z,175.53
2023-01-13T22:37:04.271Z,163.53
2023-01-13T22:39:37.823Z,176.77
2023-01-13T22:42:11.380Z,180.60
2023-01-13T22:44:46.641Z,169.03
2023-01-13T22:47:19.930Z,167.80
2023-01-13T22:49:55.280Z,169.93
2023-01-13T22:52:28.663Z,149.50
2023-01-13T22:55:02.355Z,165.43
2023-01-13T22:57:46.959Z,149.50
2023-01-13T23:00:22.138Z,181.20
2023-01-13T23:02:55.380Z,152.93
2023-01-13T23:05:31.499Z,143.10
2023-01-13T23:08:04.792Z,175.97
2023-01-13T23:10:38.329Z,165.70
2023-01-13T23:13:12.706Z,151.63
2023-01-13T23:15:45.557Z,145.60
2023-01-13T23:18:18.325Z,155.97
2023-01-13T23:20:53.152Z,138.80
2023-01-13T23:23:27.446Z,159.60
2023-01-13T23:26:03.703Z,168.97
2023-01-13T23:28:38.697Z,155.97
2023-01-13T23:31:12.795Z,164.30
2023-01-13T23:33:45.989Z,149.93
2023-01-13T23:36:22.656Z,151.90
2023-01-13T23:38:56.966Z,156.93
2023-01-13T23:41:31.820Z,161.40
2023-01-13T23:44:06.112Z,141.87
2023-01-13T23:46:39.759Z,152.43
2023-01-13T23:49:13.173Z,164.07
2023-01-13T23:51:48.512Z,126.80
2023-01-13T23:54:21.588Z,144.33
2023-01-13T23:56:57.804Z,158.60
2023-01-13T23:59:31.119Z,161.67
